WetterOnline ( http://www.wetteronline.de )

Wetter aktuell Helgoland

Aktuelles Wetter: Helgoland/Düne (8m)

6-stündlich | Neueste Meldungen
Ortszeit Temperatur Wetter
Mo, 19.11. 19:00 6.3° C bedeckt
Mo, 19.11. 13:00 6.8° C bewölkt
Mo, 19.11. 7:00 6.2° C wolkenlos
Mo, 19.11. 1:00 7.0° C wolkig
So, 18.11. 19:00 7.8° C bedeckt
So, 18.11. 13:00 7.0° C wolkig
So, 18.11. 7:00 6.9° C wolkig
So, 18.11. 1:00 6.8° C wolkenlos
Ortszeit Temperatur Wetter
Mo, 19.11. 23:00 6.6° C wolkenlos
Mo, 19.11. 22:50 6.6° C wolkenlos
Mo, 19.11. 22:40 6.4° C wolkenlos
Mo, 19.11. 22:30 6.6° C fast wolkenlos
Mo, 19.11. 22:20 6.6° C fast wolkenlos
Mo, 19.11. 22:10 6.4° C leicht bewölkt
Mo, 19.11. 22:00 6.6° C bewölkt
Mo, 19.11. 21:30 6.5° C bedeckt
Mo, 19.11. 21:00 6.6° C bedeckt
Mo, 19.11. 20:30 6.5° C bewölkt
Mo, 19.11. 20:00 6.7° C bedeckt
Ortszeit Relative Feuchte Sichtweite
Mo, 19.11. 19:00 82% 40 km
Mo, 19.11. 13:00 78% 30 km
Mo, 19.11. 7:00 81% 35 km
Mo, 19.11. 1:00 76% 40 km
So, 18.11. 19:00 75% 30 km
So, 18.11. 13:00 82% 14 km
So, 18.11. 7:00 61% 28 km
So, 18.11. 1:00 72% 23 km
Ortszeit Relative Feuchte Sichtweite
Mo, 19.11. 23:00 70% 40 km
Mo, 19.11. 22:50 70% -
Mo, 19.11. 22:40 77% -
Mo, 19.11. 22:30 72% 55 km
Mo, 19.11. 22:20 72% -
Mo, 19.11. 22:10 75% -
Mo, 19.11. 22:00 72% 50 km
Mo, 19.11. 21:30 81% 35 km
Mo, 19.11. 21:00 79% 50 km
Mo, 19.11. 20:30 82% 35 km
Mo, 19.11. 20:00 81% 40 km
Ortszeit Niederschlagsmenge Niederschlagsart
Mo, 19.11. 19:00 0.7 l/m2 in 12 Std. Regen
Mo, 19.11. 13:00 0.0 l/m2 in 6 Std. -
Mo, 19.11. 7:00 0.0 l/m2 in 12 Std. -
Mo, 19.11. 1:00 0.0 l/m2 in 6 Std. -
So, 18.11. 19:00 0.0 l/m2 in 12 Std. -
So, 18.11. 13:00 0.0 l/m2 in 6 Std. -
So, 18.11. 7:00 0.0 l/m2 in 12 Std. -
So, 18.11. 1:00 0.0 l/m2 in 6 Std. -
Ortszeit Niederschlagsmenge Niederschlagsart
Mo, 19.11. 23:00 0.0 l/m2 in 1 Std. -
Mo, 19.11. 22:50 keine Meldung -
Mo, 19.11. 22:40 keine Meldung -
Mo, 19.11. 22:30 0.0 l/m2 in 1 Std. -
Mo, 19.11. 22:20 keine Meldung -
Mo, 19.11. 22:10 keine Meldung -
Mo, 19.11. 22:00 0.0 l/m2 in 1 Std. Regen
Mo, 19.11. 21:30 0.0 l/m2 in 1 Std. -
Mo, 19.11. 21:00 0.1 l/m2 in 1 Std. Regen
Mo, 19.11. 20:30 0.1 l/m2 in 1 Std. Schneeregen
Mo, 19.11. 20:00 0.0 l/m2 in 1 Std. -
Ortszeit Stärke Spitze Richtung
km/h Bft. km/h Grad Sektor
Mo, 19.11. 19:00 52 7 70 70° O
Mo, 19.11. 13:00 54 7 72 60° NO
Mo, 19.11. 7:00 54 7 65 60° NO
Mo, 19.11. 1:00 48 6 61 60° NO
So, 18.11. 19:00 41 6 56 80° O
So, 18.11. 13:00 35 5 41 60° NO
So, 18.11. 7:00 22 4 40 90° O
So, 18.11. 1:00 35 5 46 120° SO
Ortszeit Stärke Spitze Richtung
km/h Bft. km/h Grad Sektor
Mo, 19.11. 23:00 50 7 65 80° O
Mo, 19.11. 22:50 50 7 - 80° O
Mo, 19.11. 22:40 50 7 - 80° O
Mo, 19.11. 22:30 50 6 65 80° O
Mo, 19.11. 22:20 50 6 - 80° O
Mo, 19.11. 22:10 48 6 - 80° O
Mo, 19.11. 22:00 46 6 61 80° O
Mo, 19.11. 21:30 50 6 61 70° O
Mo, 19.11. 21:00 50 6 63 80° O
Mo, 19.11. 20:30 52 7 63 70° O
Mo, 19.11. 20:00 52 7 65 80° O
Ortszeit Untergrenze Bedeckung Gattung
total tief tief mittel hoch
Mo, 19.11. 19:00 480 m 8/8 8/8 - - -
Mo, 19.11. 13:00 540 m 7/8 7/8 - - -
Mo, 19.11. 7:00 480 m 0/8 0/8 - - -
Mo, 19.11. 1:00 600 m 8/8 2/8 - - -
So, 18.11. 19:00 720 m 8/8 8/8 - - -
So, 18.11. 13:00 330 m 5/8 5/8 - - -
So, 18.11. 7:00 5400 m 7/8 3/8 - - -
So, 18.11. 1:00 - 0/8 0/8 - - -
Ortszeit Bedeckungsgrad in Achtel und Wolkenuntergrenze
Mo, 19.11. 23:00 keine Wolken
Mo, 19.11. 22:50 keine Wolken
Mo, 19.11. 22:40 keine Wolken
Mo, 19.11. 22:30 1(1500m)
Mo, 19.11. 22:20 1(1500m)
Mo, 19.11. 22:10 2(1800m)
Mo, 19.11. 22:00 7(1800m)
Mo, 19.11. 21:30 8(1500m)
Mo, 19.11. 21:00 2(510m) 8(1800m)
Mo, 19.11. 20:30 2(600m) 7(1500m) 7(1800m)
Mo, 19.11. 20:00 2(510m) 5(960m) 8(1500m)
Ortszeit Luftdruck NN (hPa) Tendenz (hPa in 3 Std.)
Mo, 19.11. 19:00 1025 - 0,2
Mo, 19.11. 13:00 1026 - 1,3
Mo, 19.11. 7:00 1028 - 1,1
Mo, 19.11. 1:00 1031 - 1,0
So, 18.11. 19:00 1032 - 0,3
So, 18.11. 13:00 1034 - 1,0
So, 18.11. 7:00 1036 - 0,5
So, 18.11. 1:00 1037 - 0,2
Ortszeit Luftdruck NN (hPa) Tendenz (hPa in 3 Std.)
Mo, 19.11. 23:00 1024 - 0,8
Mo, 19.11. 22:50 1024 keine Meldung
Mo, 19.11. 22:40 1024 keine Meldung
Mo, 19.11. 22:30 1024 - 0,8
Mo, 19.11. 22:20 1024 keine Meldung
Mo, 19.11. 22:10 1024 keine Meldung
Mo, 19.11. 22:00 1024 - 0,5
Mo, 19.11. 21:30 1025 - 0,1
Mo, 19.11. 21:00 1024 - 0,3
Mo, 19.11. 20:30 1025 - 0,3
Mo, 19.11. 20:00 1025 - 0,1
Ortszeit Schneehöhe (cm)
Mo, 19.11. 19:00 0
Mo, 19.11. 13:00 0
Mo, 19.11. 7:00 0
Mo, 19.11. 1:00 0
So, 18.11. 19:00 0
So, 18.11. 13:00 0
So, 18.11. 7:00 0
So, 18.11. 1:00 0
Ortszeit Schneehöhe (cm)
Mo, 19.11. 23:00 0
Mo, 19.11. 22:50 0
Mo, 19.11. 22:40 0
Mo, 19.11. 22:30 0
Mo, 19.11. 22:20 0
Mo, 19.11. 22:10 0
Mo, 19.11. 22:00 0
Mo, 19.11. 21:30 0
Mo, 19.11. 21:00 0
Mo, 19.11. 20:30 0
Mo, 19.11. 20:00 0
Link zu dieser Seite / Seite empfehlen

Das Wetter in ...